This is the latest recevied weather packets stored in our database for station/object WC4PEM-15. If no packets are shown the sender has not sent any weather packets the latest 1 day(s).
| Time | Temp. | Humidity | Pressure | Rain* | Wind** | Luminosity | Snow |
|---|---|---|---|---|---|---|---|
| 1778077609 | 26.67° C | 71% | 1017.1 hPa | 0 mm | - | - | - |
| 1778076597 | 26.11° C | 74% | 1017.4 hPa | 0 mm | - | - | - |
| 1778074794 | 25° C | 80% | 1017 hPa | 0 mm | - | - | - |
| 1778074173 | 25° C | 80% | 1016.9 hPa | 0 mm | - | - | - |
| 1778073966 | 25° C | 80% | 1016.9 hPa | 0 mm | - | - | - |
| 1778073666 | 24.44° C | 82% | 1016.9 hPa | 0 mm | - | - | - |
| 1778072827 | 23.33° C | 86% | 1016.9 hPa | 0 mm | - | - | - |
| 1778072460 | 23.33° C | 86% | 1016.8 hPa | 0 mm | - | - | - |
| 1778071942 | 22.78° C | 89% | 1016.6 hPa | 0 mm | - | - | - |
| 1778071802 | 22.22° C | 90% | 1016.6 hPa | 0 mm | - | - | - |
| 1778071189 | 21.67° C | 91% | 1016.5 hPa | 0 mm | - | - | - |
| 1778070948 | 21.67° C | 91% | 1016.5 hPa | 0 mm | - | - | - |
| 1778070891 | 21.11° C | 91% | 1016.5 hPa | 0 mm | - | - | - |
| 1778068541 | 20.56° C | 92% | 1016.3 hPa | 0 mm | - | - | - |
| 1778068258 | 20° C | 93% | 1016.2 hPa | 0 mm | - | - | - |
| 1778067898 | 20° C | 93% | 1016.2 hPa | 0 mm | - | - | - |
| 1778067298 | 20° C | 93% | 1016.2 hPa | 0 mm | - | - | - |
| 1778066998 | 19.44° C | 93% | 1016.1 hPa | 0 mm | - | - | - |
| 1778066698 | 19.44° C | 93% | 1016.2 hPa | 0 mm | - | - | - |
| 1778066398 | 19.44° C | 93% | 1016 hPa | 0 mm | - | - | - |
| 1778066098 | 19.44° C | 92% | 1016.1 hPa | 0 mm | - | - | - |
| 1778065798 | 19.44° C | 93% | 1015.9 hPa | 0 mm | - | - | - |
| 1778065498 | 19.44° C | 92% | 1016 hPa | 0 mm | - | - | - |
| 1778065207 | 19.44° C | 93% | 1015.7 hPa | 0 mm | - | - | - |
| 1778065198 | 19.44° C | 92% | 1015.7 hPa | 0 mm | - | - | - |
* Rain latest hour (hover to see other rain measurements)
** Current wind speed in m/s (hover to see current wind gust speed)